sensor_id;sensor_type;location;lat;lon;timestamp;P1;durP1;ratioP1;P2;durP2;ratioP2
14681;SDS011;7429;52.498;13.480;2023-05-10T00:00:15;9.07;;;7.33;;
14681;SDS011;7429;52.498;13.480;2023-05-10T00:03:19;9.77;;;6.90;;
14681;SDS011;7429;52.498;13.480;2023-05-10T00:06:22;9.47;;;7.10;;
14681;SDS011;7429;52.498;13.480;2023-05-10T00:09:25;9.53;;;7.87;;
14681;SDS011;7429;52.498;13.480;2023-05-10T00:12:28;11.40;;;7.73;;
14681;SDS011;7429;52.498;13.480;2023-05-10T00:15:33;9.10;;;7.77;;
14681;SDS011;7429;52.498;13.480;2023-05-10T00:18:36;8.57;;;7.47;;
14681;SDS011;7429;52.498;13.480;2023-05-10T00:21:40;10.40;;;7.60;;
14681;SDS011;7429;52.498;13.480;2023-05-10T00:24:43;10.70;;;7.10;;
14681;SDS011;7429;52.498;13.480;2023-05-10T00:27:46;9.77;;;6.83;;
14681;SDS011;7429;52.498;13.480;2023-05-10T00:30:50;10.33;;;8.70;;
14681;SDS011;7429;52.498;13.480;2023-05-10T00:33:54;9.53;;;8.53;;
14681;SDS011;7429;52.498;13.480;2023-05-10T00:36:58;8.77;;;7.97;;
14681;SDS011;7429;52.498;13.480;2023-05-10T00:40:01;12.27;;;8.00;;
14681;SDS011;7429;52.498;13.480;2023-05-10T00:43:04;9.03;;;8.10;;
14681;SDS011;7429;52.498;13.480;2023-05-10T00:46:09;8.57;;;7.73;;
14681;SDS011;7429;52.498;13.480;2023-05-10T00:49:12;11.53;;;7.77;;
14681;SDS011;7429;52.498;13.480;2023-05-10T00:52:15;9.27;;;8.37;;
14681;SDS011;7429;52.498;13.480;2023-05-10T00:55:19;9.53;;;8.50;;
14681;SDS011;7429;52.498;13.480;2023-05-10T00:58:22;10.33;;;8.60;;
14681;SDS011;7429;52.498;13.480;2023-05-10T01:01:30;8.43;;;7.63;;
14681;SDS011;7429;52.498;13.480;2023-05-10T01:04:34;10.43;;;8.07;;
14681;SDS011;7429;52.498;13.480;2023-05-10T01:07:38;11.40;;;8.87;;
14681;SDS011;7429;52.498;13.480;2023-05-10T01:10:43;9.73;;;8.23;;
14681;SDS011;7429;52.498;13.480;2023-05-10T01:13:49;9.57;;;8.47;;
14681;SDS011;7429;52.498;13.480;2023-05-10T01:16:59;8.57;;;7.67;;
14681;SDS011;7429;52.498;13.480;2023-05-10T01:20:03;9.77;;;7.97;;
14681;SDS011;7429;52.498;13.480;2023-05-10T01:23:18;8.87;;;7.33;;
14681;SDS011;7429;52.498;13.480;2023-05-10T01:26:49;9.53;;;8.63;;
14681;SDS011;7429;52.498;13.480;2023-05-10T01:30:25;10.47;;;8.60;;
14681;SDS011;7429;52.498;13.480;2023-05-10T01:33:55;10.67;;;8.27;;
14681;SDS011;7429;52.498;13.480;2023-05-10T01:37:06;8.60;;;7.80;;
14681;SDS011;7429;52.498;13.480;2023-05-10T01:40:15;9.40;;;7.50;;
14681;SDS011;7429;52.498;13.480;2023-05-10T01:43:26;9.10;;;8.20;;
14681;SDS011;7429;52.498;13.480;2023-05-10T01:46:36;8.20;;;7.50;;
14681;SDS011;7429;52.498;13.480;2023-05-10T01:49:43;11.33;;;8.50;;
14681;SDS011;7429;52.498;13.480;2023-05-10T01:52:51;8.87;;;7.93;;
14681;SDS011;7429;52.498;13.480;2023-05-10T01:55:57;9.20;;;8.30;;
14681;SDS011;7429;52.498;13.480;2023-05-10T01:59:04;9.50;;;8.50;;
14681;SDS011;7429;52.498;13.480;2023-05-10T02:02:11;9.93;;;8.70;;
14681;SDS011;7429;52.498;13.480;2023-05-10T02:05:20;9.80;;;7.30;;
14681;SDS011;7429;52.498;13.480;2023-05-10T02:08:24;9.80;;;8.80;;
14681;SDS011;7429;52.498;13.480;2023-05-10T02:11:31;13.57;;;9.27;;
14681;SDS011;7429;52.498;13.480;2023-05-10T02:14:35;8.83;;;8.03;;
14681;SDS011;7429;52.498;13.480;2023-05-10T02:17:39;12.23;;;9.27;;
14681;SDS011;7429;52.498;13.480;2023-05-10T02:20:46;9.27;;;8.07;;
14681;SDS011;7429;52.498;13.480;2023-05-10T02:23:50;8.73;;;7.77;;
14681;SDS011;7429;52.498;13.480;2023-05-10T02:26:54;9.00;;;8.20;;
14681;SDS011;7429;52.498;13.480;2023-05-10T02:29:58;10.77;;;8.80;;
14681;SDS011;7429;52.498;13.480;2023-05-10T02:33:01;9.73;;;7.80;;
14681;SDS011;7429;52.498;13.480;2023-05-10T02:36:08;10.67;;;8.20;;
14681;SDS011;7429;52.498;13.480;2023-05-10T02:39:12;8.93;;;8.03;;
14681;SDS011;7429;52.498;13.480;2023-05-10T02:42:17;8.43;;;7.50;;
14681;SDS011;7429;52.498;13.480;2023-05-10T02:45:23;11.87;;;7.47;;
14681;SDS011;7429;52.498;13.480;2023-05-10T02:48:30;10.40;;;8.07;;
14681;SDS011;7429;52.498;13.480;2023-05-10T02:51:35;8.80;;;7.90;;
14681;SDS011;7429;52.498;13.480;2023-05-10T02:54:45;9.90;;;7.67;;
14681;SDS011;7429;52.498;13.480;2023-05-10T02:57:55;11.83;;;8.27;;
14681;SDS011;7429;52.498;13.480;2023-05-10T03:01:02;10.13;;;8.63;;
14681;SDS011;7429;52.498;13.480;2023-05-10T03:04:05;9.73;;;8.53;;
14681;SDS011;7429;52.498;13.480;2023-05-10T03:07:10;13.97;;;8.07;;
14681;SDS011;7429;52.498;13.480;2023-05-10T03:10:14;9.40;;;8.23;;
14681;SDS011;7429;52.498;13.480;2023-05-10T03:13:24;11.67;;;8.60;;
14681;SDS011;7429;52.498;13.480;2023-05-10T03:16:39;7.97;;;6.90;;
14681;SDS011;7429;52.498;13.480;2023-05-10T03:19:51;9.53;;;8.53;;
14681;SDS011;7429;52.498;13.480;2023-05-10T03:23:02;10.83;;;7.83;;
14681;SDS011;7429;52.498;13.480;2023-05-10T03:26:12;7.93;;;7.13;;
14681;SDS011;7429;52.498;13.480;2023-05-10T03:29:23;8.17;;;7.37;;
14681;SDS011;7429;52.498;13.480;2023-05-10T03:32:28;8.03;;;7.10;;
14681;SDS011;7429;52.498;13.480;2023-05-10T03:35:34;10.33;;;8.30;;
14681;SDS011;7429;52.498;13.480;2023-05-10T03:38:39;9.77;;;7.17;;
14681;SDS011;7429;52.498;13.480;2023-05-10T03:41:42;10.83;;;8.17;;
14681;SDS011;7429;52.498;13.480;2023-05-10T03:44:45;10.40;;;7.73;;
14681;SDS011;7429;52.498;13.480;2023-05-10T03:47:50;12.23;;;8.00;;
14681;SDS011;7429;52.498;13.480;2023-05-10T03:50:53;11.73;;;7.97;;
14681;SDS011;7429;52.498;13.480;2023-05-10T03:53:58;9.17;;;7.17;;
14681;SDS011;7429;52.498;13.480;2023-05-10T03:57:01;11.93;;;7.43;;
14681;SDS011;7429;52.498;13.480;2023-05-10T04:00:06;8.23;;;7.40;;
14681;SDS011;7429;52.498;13.480;2023-05-10T04:03:15;10.53;;;7.53;;
14681;SDS011;7429;52.498;13.480;2023-05-10T04:06:19;8.73;;;7.30;;
14681;SDS011;7429;52.498;13.480;2023-05-10T04:09:23;9.60;;;7.37;;
14681;SDS011;7429;52.498;13.480;2023-05-10T04:12:27;10.07;;;7.60;;
14681;SDS011;7429;52.498;13.480;2023-05-10T04:15:30;10.40;;;7.60;;
14681;SDS011;7429;52.498;13.480;2023-05-10T04:18:33;9.23;;;6.90;;
14681;SDS011;7429;52.498;13.480;2023-05-10T04:21:37;9.70;;;7.40;;
14681;SDS011;7429;52.498;13.480;2023-05-10T04:24:41;12.17;;;7.67;;
14681;SDS011;7429;52.498;13.480;2023-05-10T04:27:44;9.20;;;7.10;;
14681;SDS011;7429;52.498;13.480;2023-05-10T04:30:48;11.30;;;7.00;;
14681;SDS011;7429;52.498;13.480;2023-05-10T04:34:07;10.97;;;7.20;;
14681;SDS011;7429;52.498;13.480;2023-05-10T04:37:12;9.63;;;6.63;;
14681;SDS011;7429;52.498;13.480;2023-05-10T04:40:16;8.47;;;7.17;;
14681;SDS011;7429;52.498;13.480;2023-05-10T04:43:19;10.03;;;7.47;;
14681;SDS011;7429;52.498;13.480;2023-05-10T04:46:22;9.23;;;7.83;;
14681;SDS011;7429;52.498;13.480;2023-05-10T04:49:26;8.17;;;7.27;;
14681;SDS011;7429;52.498;13.480;2023-05-10T04:52:29;7.77;;;6.97;;
14681;SDS011;7429;52.498;13.480;2023-05-10T04:55:34;8.67;;;7.77;;
14681;SDS011;7429;52.498;13.480;2023-05-10T04:58:38;13.07;;;7.00;;
14681;SDS011;7429;52.498;13.480;2023-05-10T05:01:41;9.70;;;6.73;;
14681;SDS011;7429;52.498;13.480;2023-05-10T05:04:44;12.20;;;6.67;;
14681;SDS011;7429;52.498;13.480;2023-05-10T05:07:47;7.40;;;6.23;;
14681;SDS011;7429;52.498;13.480;2023-05-10T05:10:52;7.53;;;6.23;;
14681;SDS011;7429;52.498;13.480;2023-05-10T05:13:55;9.53;;;6.77;;
14681;SDS011;7429;52.498;13.480;2023-05-10T05:17:00;11.40;;;6.30;;
14681;SDS011;7429;52.498;13.480;2023-05-10T05:20:04;8.60;;;6.00;;
14681;SDS011;7429;52.498;13.480;2023-05-10T05:23:08;8.70;;;6.03;;
14681;SDS011;7429;52.498;13.480;2023-05-10T05:26:13;9.47;;;6.27;;
14681;SDS011;7429;52.498;13.480;2023-05-10T05:29:19;7.70;;;6.30;;
14681;SDS011;7429;52.498;13.480;2023-05-10T05:32:22;7.37;;;6.17;;
14681;SDS011;7429;52.498;13.480;2023-05-10T05:35:26;6.57;;;5.97;;
14681;SDS011;7429;52.498;13.480;2023-05-10T05:38:29;7.30;;;5.83;;
14681;SDS011;7429;52.498;13.480;2023-05-10T05:41:33;9.97;;;5.93;;
14681;SDS011;7429;52.498;13.480;2023-05-10T05:44:37;6.73;;;5.80;;
14681;SDS011;7429;52.498;13.480;2023-05-10T05:47:40;9.93;;;5.07;;
14681;SDS011;7429;52.498;13.480;2023-05-10T05:50:43;6.73;;;5.20;;
14681;SDS011;7429;52.498;13.480;2023-05-10T05:53:46;7.30;;;5.73;;
14681;SDS011;7429;52.498;13.480;2023-05-10T05:56:53;9.93;;;5.60;;
14681;SDS011;7429;52.498;13.480;2023-05-10T05:59:56;6.73;;;5.37;;
14681;SDS011;7429;52.498;13.480;2023-05-10T06:03:00;5.83;;;5.23;;
14681;SDS011;7429;52.498;13.480;2023-05-10T06:06:04;8.53;;;4.90;;
14681;SDS011;7429;52.498;13.480;2023-05-10T06:09:07;9.53;;;5.27;;
14681;SDS011;7429;52.498;13.480;2023-05-10T06:12:12;9.60;;;5.13;;
14681;SDS011;7429;52.498;13.480;2023-05-10T06:15:15;9.17;;;4.97;;
14681;SDS011;7429;52.498;13.480;2023-05-10T06:18:19;6.53;;;4.77;;
14681;SDS011;7429;52.498;13.480;2023-05-10T06:21:23;5.10;;;4.63;;
14681;SDS011;7429;52.498;13.480;2023-05-10T06:24:26;8.77;;;5.17;;
14681;SDS011;7429;52.498;13.480;2023-05-10T06:27:31;5.37;;;4.80;;
14681;SDS011;7429;52.498;13.480;2023-05-10T06:30:35;9.50;;;4.93;;
14681;SDS011;7429;52.498;13.480;2023-05-10T06:33:39;8.07;;;5.10;;
14681;SDS011;7429;52.498;13.480;2023-05-10T06:36:45;6.03;;;5.37;;
14681;SDS011;7429;52.498;13.480;2023-05-10T06:39:48;6.80;;;4.50;;
14681;SDS011;7429;52.498;13.480;2023-05-10T06:42:53;6.57;;;4.93;;
14681;SDS011;7429;52.498;13.480;2023-05-10T06:45:56;7.17;;;4.53;;
14681;SDS011;7429;52.498;13.480;2023-05-10T06:49:00;5.77;;;4.80;;
14681;SDS011;7429;52.498;13.480;2023-05-10T06:52:06;6.10;;;4.70;;
14681;SDS011;7429;52.498;13.480;2023-05-10T06:55:09;8.13;;;4.90;;
14681;SDS011;7429;52.498;13.480;2023-05-10T06:58:14;7.27;;;3.90;;
14681;SDS011;7429;52.498;13.480;2023-05-10T07:01:18;5.40;;;4.57;;
14681;SDS011;7429;52.498;13.480;2023-05-10T07:04:21;7.60;;;4.43;;
14681;SDS011;7429;52.498;13.480;2023-05-10T07:07:24;6.30;;;5.07;;
14681;SDS011;7429;52.498;13.480;2023-05-10T07:10:28;4.97;;;4.33;;
14681;SDS011;7429;52.498;13.480;2023-05-10T07:13:32;6.90;;;5.10;;
14681;SDS011;7429;52.498;13.480;2023-05-10T07:16:37;5.85;;;4.45;;
14681;SDS011;7429;52.498;13.480;2023-05-10T07:19:41;5.65;;;4.60;;
14681;SDS011;7429;52.498;13.480;2023-05-10T07:22:44;5.22;;;4.28;;
14681;SDS011;7429;52.498;13.480;2023-05-10T07:25:47;4.97;;;4.57;;
14681;SDS011;7429;52.498;13.480;2023-05-10T07:28:54;11.23;;;4.43;;
14681;SDS011;7429;52.498;13.480;2023-05-10T07:31:57;4.68;;;4.28;;
14681;SDS011;7429;52.498;13.480;2023-05-10T07:35:00;8.38;;;5.00;;
14681;SDS011;7429;52.498;13.480;2023-05-10T07:38:03;6.85;;;4.30;;
14681;SDS011;7429;52.498;13.480;2023-05-10T07:41:07;7.40;;;4.68;;
14681;SDS011;7429;52.498;13.480;2023-05-10T07:44:11;8.05;;;5.13;;
14681;SDS011;7429;52.498;13.480;2023-05-10T07:47:14;5.50;;;4.30;;
14681;SDS011;7429;52.498;13.480;2023-05-10T07:50:17;5.93;;;5.03;;
14681;SDS011;7429;52.498;13.480;2023-05-10T07:53:20;5.88;;;4.88;;
14681;SDS011;7429;52.498;13.480;2023-05-10T07:56:24;5.65;;;4.10;;
14681;SDS011;7429;52.498;13.480;2023-05-10T07:59:32;9.10;;;4.28;;
14681;SDS011;7429;52.498;13.480;2023-05-10T08:02:35;5.53;;;4.50;;
14681;SDS011;7429;52.498;13.480;2023-05-10T08:05:38;9.00;;;4.78;;
14681;SDS011;7429;52.498;13.480;2023-05-10T08:08:42;7.07;;;4.18;;
14681;SDS011;7429;52.498;13.480;2023-05-10T09:17:27;4.88;;;3.92;;
14681;SDS011;7429;52.498;13.480;2023-05-10T09:24:02;4.63;;;4.25;;
14681;SDS011;7429;52.498;13.480;2023-05-10T09:27:06;5.82;;;4.22;;
14681;SDS011;7429;52.498;13.480;2023-05-10T09:30:15;7.63;;;4.53;;
14681;SDS011;7429;52.498;13.480;2023-05-10T09:33:20;4.15;;;3.85;;
14681;SDS011;7429;52.498;13.480;2023-05-10T09:36:25;5.15;;;4.63;;
14681;SDS011;7429;52.498;13.480;2023-05-10T09:39:32;5.85;;;4.25;;
14681;SDS011;7429;52.498;13.480;2023-05-10T10:49:43;4.90;;;3.58;;
14681;SDS011;7429;52.498;13.480;2023-05-10T10:52:53;5.60;;;3.97;;
14681;SDS011;7429;52.498;13.480;2023-05-10T10:56:04;5.88;;;4.32;;
14681;SDS011;7429;52.498;13.480;2023-05-10T10:59:26;8.27;;;3.83;;
14681;SDS011;7429;52.498;13.480;2023-05-10T11:02:33;4.32;;;3.67;;
14681;SDS011;7429;52.498;13.480;2023-05-10T11:05:48;4.25;;;3.85;;
14681;SDS011;7429;52.498;13.480;2023-05-10T11:08:54;4.80;;;4.32;;
14681;SDS011;7429;52.498;13.480;2023-05-10T11:11:57;7.43;;;4.15;;
14681;SDS011;7429;52.498;13.480;2023-05-10T11:15:02;4.50;;;3.50;;
14681;SDS011;7429;52.498;13.480;2023-05-10T11:18:18;11.80;;;4.47;;
14681;SDS011;7429;52.498;13.480;2023-05-10T11:21:27;8.75;;;3.60;;
14681;SDS011;7429;52.498;13.480;2023-05-10T11:24:31;6.70;;;4.10;;
14681;SDS011;7429;52.498;13.480;2023-05-10T11:27:37;4.57;;;3.28;;
14681;SDS011;7429;52.498;13.480;2023-05-10T11:30:41;4.20;;;3.20;;
14681;SDS011;7429;52.498;13.480;2023-05-10T11:33:46;3.80;;;3.38;;
14681;SDS011;7429;52.498;13.480;2023-05-10T11:36:53;8.85;;;3.42;;
14681;SDS011;7429;52.498;13.480;2023-05-10T11:39:57;6.80;;;3.70;;
14681;SDS011;7429;52.498;13.480;2023-05-10T11:43:00;6.50;;;3.40;;
14681;SDS011;7429;52.498;13.480;2023-05-10T11:46:04;9.65;;;3.67;;
14681;SDS011;7429;52.498;13.480;2023-05-10T11:49:08;5.57;;;3.08;;
14681;SDS011;7429;52.498;13.480;2023-05-10T11:52:13;7.70;;;3.38;;
14681;SDS011;7429;52.498;13.480;2023-05-10T11:55:17;3.88;;;3.35;;
14681;SDS011;7429;52.498;13.480;2023-05-10T11:58:21;10.68;;;3.67;;
14681;SDS011;7429;52.498;13.480;2023-05-10T12:01:28;5.88;;;3.25;;
14681;SDS011;7429;52.498;13.480;2023-05-10T12:04:31;8.20;;;3.72;;
14681;SDS011;7429;52.498;13.480;2023-05-10T12:07:39;5.75;;;3.10;;
14681;SDS011;7429;52.498;13.480;2023-05-10T12:10:42;8.38;;;3.20;;
14681;SDS011;7429;52.498;13.480;2023-05-10T12:13:46;4.43;;;3.13;;
14681;SDS011;7429;52.498;13.480;2023-05-10T12:17:04;4.18;;;3.78;;
14681;SDS011;7429;52.498;13.480;2023-05-10T12:20:15;4.63;;;3.00;;
14681;SDS011;7429;52.498;13.480;2023-05-10T12:23:23;7.75;;;3.28;;
14681;SDS011;7429;52.498;13.480;2023-05-10T12:26:28;3.17;;;2.85;;
14681;SDS011;7429;52.498;13.480;2023-05-10T12:29:32;5.35;;;3.58;;
14681;SDS011;7429;52.498;13.480;2023-05-10T12:32:39;4.40;;;3.10;;
14681;SDS011;7429;52.498;13.480;2023-05-10T12:35:43;6.10;;;3.58;;
14681;SDS011;7429;52.498;13.480;2023-05-10T12:38:49;5.53;;;3.47;;
14681;SDS011;7429;52.498;13.480;2023-05-10T12:41:54;6.90;;;3.75;;
14681;SDS011;7429;52.498;13.480;2023-05-10T12:44:57;4.32;;;2.90;;
14681;SDS011;7429;52.498;13.480;2023-05-10T12:48:00;4.72;;;2.83;;
14681;SDS011;7429;52.498;13.480;2023-05-10T12:51:03;5.95;;;2.95;;
14681;SDS011;7429;52.498;13.480;2023-05-10T12:54:12;5.72;;;2.90;;
14681;SDS011;7429;52.498;13.480;2023-05-10T12:57:15;4.97;;;2.95;;
14681;SDS011;7429;52.498;13.480;2023-05-10T13:00:19;5.05;;;3.08;;
14681;SDS011;7429;52.498;13.480;2023-05-10T13:03:22;5.03;;;2.97;;
14681;SDS011;7429;52.498;13.480;2023-05-10T13:06:25;7.53;;;2.85;;
14681;SDS011;7429;52.498;13.480;2023-05-10T13:09:32;3.03;;;2.70;;
14681;SDS011;7429;52.498;13.480;2023-05-10T13:12:35;4.57;;;2.70;;
14681;SDS011;7429;52.498;13.480;2023-05-10T13:15:38;3.95;;;3.33;;
14681;SDS011;7429;52.498;13.480;2023-05-10T13:18:41;5.75;;;3.15;;
14681;SDS011;7429;52.498;13.480;2023-05-10T13:21:44;4.68;;;2.53;;
14681;SDS011;7429;52.498;13.480;2023-05-10T13:24:49;4.50;;;2.80;;
14681;SDS011;7429;52.498;13.480;2023-05-10T13:27:52;2.83;;;2.63;;
14681;SDS011;7429;52.498;13.480;2023-05-10T13:30:55;5.57;;;2.97;;
14681;SDS011;7429;52.498;13.480;2023-05-10T13:33:58;4.65;;;3.70;;
14681;SDS011;7429;52.498;13.480;2023-05-10T13:37:02;4.18;;;2.80;;
14681;SDS011;7429;52.498;13.480;2023-05-10T13:40:07;5.25;;;3.30;;
14681;SDS011;7429;52.498;13.480;2023-05-10T13:43:16;3.70;;;2.65;;
14681;SDS011;7429;52.498;13.480;2023-05-10T13:46:20;7.55;;;2.92;;
14681;SDS011;7429;52.498;13.480;2023-05-10T13:49:24;5.88;;;2.85;;
14681;SDS011;7429;52.498;13.480;2023-05-10T13:52:27;3.40;;;3.10;;
14681;SDS011;7429;52.498;13.480;2023-05-10T13:55:32;6.25;;;2.60;;
14681;SDS011;7429;52.498;13.480;2023-05-10T13:58:35;4.78;;;2.80;;
14681;SDS011;7429;52.498;13.480;2023-05-10T14:01:38;5.07;;;2.50;;
14681;SDS011;7429;52.498;13.480;2023-05-10T14:04:41;2.90;;;2.60;;
14681;SDS011;7429;52.498;13.480;2023-05-10T14:07:46;3.80;;;3.25;;
14681;SDS011;7429;52.498;13.480;2023-05-10T14:10:51;3.70;;;2.65;;
14681;SDS011;7429;52.498;13.480;2023-05-10T14:13:54;3.05;;;2.85;;
14681;SDS011;7429;52.498;13.480;2023-05-10T14:16:57;6.13;;;2.78;;
14681;SDS011;7429;52.498;13.480;2023-05-10T14:20:00;5.78;;;2.83;;
14681;SDS011;7429;52.498;13.480;2023-05-10T14:23:05;7.57;;;3.00;;
14681;SDS011;7429;52.498;13.480;2023-05-10T14:31:37;6.68;;;3.30;;
14681;SDS011;7429;52.498;13.480;2023-05-10T14:34:47;8.95;;;2.92;;
14681;SDS011;7429;52.498;13.480;2023-05-10T14:37:52;7.72;;;3.22;;
14681;SDS011;7429;52.498;13.480;2023-05-10T14:46:52;3.55;;;3.13;;
14681;SDS011;7429;52.498;13.480;2023-05-10T14:49:56;3.90;;;2.90;;
14681;SDS011;7429;52.498;13.480;2023-05-10T14:52:59;3.25;;;2.95;;
14681;SDS011;7429;52.498;13.480;2023-05-10T14:56:03;4.97;;;3.17;;
14681;SDS011;7429;52.498;13.480;2023-05-10T14:59:06;8.75;;;3.10;;
14681;SDS011;7429;52.498;13.480;2023-05-10T15:02:11;2.80;;;2.60;;
14681;SDS011;7429;52.498;13.480;2023-05-10T15:05:15;2.85;;;2.63;;
14681;SDS011;7429;52.498;13.480;2023-05-10T15:08:19;6.63;;;3.17;;
14681;SDS011;7429;52.498;13.480;2023-05-10T15:11:25;3.72;;;2.70;;
14681;SDS011;7429;52.498;13.480;2023-05-10T15:14:28;3.85;;;2.95;;
14681;SDS011;7429;52.498;13.480;2023-05-10T15:17:36;3.03;;;2.45;;
14681;SDS011;7429;52.498;13.480;2023-05-10T15:20:39;5.38;;;3.05;;
14681;SDS011;7429;52.498;13.480;2023-05-10T15:23:42;5.20;;;3.00;;
14681;SDS011;7429;52.498;13.480;2023-05-10T15:26:48;6.85;;;2.95;;
14681;SDS011;7429;52.498;13.480;2023-05-10T15:29:54;3.72;;;2.70;;
14681;SDS011;7429;52.498;13.480;2023-05-10T15:32:58;7.15;;;2.80;;
14681;SDS011;7429;52.498;13.480;2023-05-10T15:36:02;4.03;;;3.60;;
14681;SDS011;7429;52.498;13.480;2023-05-10T15:39:05;9.00;;;2.90;;
14681;SDS011;7429;52.498;13.480;2023-05-10T15:42:11;4.95;;;3.03;;
14681;SDS011;7429;52.498;13.480;2023-05-10T15:45:18;3.83;;;3.03;;
14681;SDS011;7429;52.498;13.480;2023-05-10T15:48:23;3.05;;;2.80;;
14681;SDS011;7429;52.498;13.480;2023-05-10T15:51:26;4.00;;;3.58;;
14681;SDS011;7429;52.498;13.480;2023-05-10T15:54:29;4.07;;;2.40;;
14681;SDS011;7429;52.498;13.480;2023-05-10T15:57:33;3.50;;;3.20;;
14681;SDS011;7429;52.498;13.480;2023-05-10T16:00:37;3.92;;;3.20;;
14681;SDS011;7429;52.498;13.480;2023-05-10T16:03:42;4.38;;;3.00;;
14681;SDS011;7429;52.498;13.480;2023-05-10T16:06:48;3.20;;;3.00;;
14681;SDS011;7429;52.498;13.480;2023-05-10T16:09:52;4.93;;;3.15;;
14681;SDS011;7429;52.498;13.480;2023-05-10T16:12:57;3.58;;;3.10;;
14681;SDS011;7429;52.498;13.480;2023-05-10T16:16:02;3.63;;;3.00;;
14681;SDS011;7429;52.498;13.480;2023-05-10T16:19:10;3.50;;;3.25;;
14681;SDS011;7429;52.498;13.480;2023-05-10T16:22:13;5.03;;;3.42;;
14681;SDS011;7429;52.498;13.480;2023-05-10T16:25:18;4.20;;;3.20;;
14681;SDS011;7429;52.498;13.480;2023-05-10T16:28:21;5.18;;;3.47;;
14681;SDS011;7429;52.498;13.480;2023-05-10T16:31:27;3.75;;;3.30;;
14681;SDS011;7429;52.498;13.480;2023-05-10T16:34:33;6.13;;;3.80;;
14681;SDS011;7429;52.498;13.480;2023-05-10T16:37:36;4.43;;;3.20;;
14681;SDS011;7429;52.498;13.480;2023-05-10T16:40:40;4.63;;;2.90;;
14681;SDS011;7429;52.498;13.480;2023-05-10T16:43:43;4.88;;;3.40;;
14681;SDS011;7429;52.498;13.480;2023-05-10T16:46:47;5.13;;;4.00;;
14681;SDS011;7429;52.498;13.480;2023-05-10T16:49:52;7.72;;;5.10;;
14681;SDS011;7429;52.498;13.480;2023-05-10T16:52:55;5.40;;;4.90;;
14681;SDS011;7429;52.498;13.480;2023-05-10T16:55:59;6.32;;;5.03;;
14681;SDS011;7429;52.498;13.480;2023-05-10T16:59:04;6.25;;;5.13;;
14681;SDS011;7429;52.498;13.480;2023-05-10T17:02:07;7.80;;;5.57;;
14681;SDS011;7429;52.498;13.480;2023-05-10T17:05:13;7.50;;;5.95;;
14681;SDS011;7429;52.498;13.480;2023-05-10T17:08:16;9.45;;;6.15;;
14681;SDS011;7429;52.498;13.480;2023-05-10T17:11:20;6.75;;;6.07;;
14681;SDS011;7429;52.498;13.480;2023-05-10T17:14:23;8.20;;;6.43;;
14681;SDS011;7429;52.498;13.480;2023-05-10T17:17:26;7.78;;;5.63;;
14681;SDS011;7429;52.498;13.480;2023-05-10T17:20:31;6.03;;;5.53;;
14681;SDS011;7429;52.498;13.480;2023-05-10T17:23:34;11.45;;;6.97;;
14681;SDS011;7429;52.498;13.480;2023-05-10T17:26:40;13.20;;;7.07;;
14681;SDS011;7429;52.498;13.480;2023-05-10T17:36:18;11.50;;;6.25;;
14681;SDS011;7429;52.498;13.480;2023-05-10T17:56:50;8.52;;;6.38;;
14681;SDS011;7429;52.498;13.480;2023-05-10T17:59:54;7.80;;;6.18;;
14681;SDS011;7429;52.498;13.480;2023-05-10T18:03:01;9.85;;;7.60;;
14681;SDS011;7429;52.498;13.480;2023-05-10T18:21:19;13.40;;;9.23;;
14681;SDS011;7429;52.498;13.480;2023-05-10T18:24:22;13.60;;;9.18;;
14681;SDS011;7429;52.498;13.480;2023-05-10T18:27:39;8.85;;;7.70;;
14681;SDS011;7429;52.498;13.480;2023-05-10T18:30:51;8.75;;;7.93;;
14681;SDS011;7429;52.498;13.480;2023-05-10T18:38:06;22.42;;;10.63;;
14681;SDS011;7429;52.498;13.480;2023-05-10T18:41:11;14.45;;;9.68;;
14681;SDS011;7429;52.498;13.480;2023-05-10T18:44:14;11.77;;;8.70;;
14681;SDS011;7429;52.498;13.480;2023-05-10T18:47:19;11.02;;;8.48;;
14681;SDS011;7429;52.498;13.480;2023-05-10T18:50:24;10.88;;;8.10;;
14681;SDS011;7429;52.498;13.480;2023-05-10T18:53:32;11.35;;;8.57;;
14681;SDS011;7429;52.498;13.480;2023-05-10T18:56:37;11.20;;;8.93;;
14681;SDS011;7429;52.498;13.480;2023-05-10T18:59:44;9.32;;;8.43;;
14681;SDS011;7429;52.498;13.480;2023-05-10T19:02:48;11.27;;;7.20;;
14681;SDS011;7429;52.498;13.480;2023-05-10T19:05:53;8.85;;;7.75;;
14681;SDS011;7429;52.498;13.480;2023-05-10T19:09:13;9.15;;;7.75;;
14681;SDS011;7429;52.498;13.480;2023-05-10T19:12:33;9.15;;;8.15;;
14681;SDS011;7429;52.498;13.480;2023-05-10T19:16:02;11.65;;;10.45;;
14681;SDS011;7429;52.498;13.480;2023-05-10T19:19:19;12.15;;;10.45;;
14681;SDS011;7429;52.498;13.480;2023-05-10T19:22:30;13.27;;;11.95;;
14681;SDS011;7429;52.498;13.480;2023-05-10T19:25:53;15.70;;;14.43;;
14681;SDS011;7429;52.498;13.480;2023-05-10T19:28:56;12.75;;;11.45;;
14681;SDS011;7429;52.498;13.480;2023-05-10T19:32:00;11.70;;;10.23;;
14681;SDS011;7429;52.498;13.480;2023-05-10T19:35:03;10.18;;;9.07;;
14681;SDS011;7429;52.498;13.480;2023-05-10T19:38:09;10.85;;;8.65;;
14681;SDS011;7429;52.498;13.480;2023-05-10T19:41:13;11.02;;;8.10;;
14681;SDS011;7429;52.498;13.480;2023-05-10T19:44:16;10.23;;;8.65;;
14681;SDS011;7429;52.498;13.480;2023-05-10T19:47:20;15.35;;;11.30;;
14681;SDS011;7429;52.498;13.480;2023-05-10T19:50:25;13.85;;;9.60;;
14681;SDS011;7429;52.498;13.480;2023-05-10T19:53:33;11.43;;;10.23;;
14681;SDS011;7429;52.498;13.480;2023-05-10T19:56:36;9.20;;;8.30;;
14681;SDS011;7429;52.498;13.480;2023-05-10T19:59:39;12.18;;;9.27;;
14681;SDS011;7429;52.498;13.480;2023-05-10T20:02:42;9.15;;;8.32;;
14681;SDS011;7429;52.498;13.480;2023-05-10T20:05:46;12.50;;;8.77;;
14681;SDS011;7429;52.498;13.480;2023-05-10T20:08:51;10.23;;;8.48;;
14681;SDS011;7429;52.498;13.480;2023-05-10T20:11:59;13.25;;;9.50;;
14681;SDS011;7429;52.498;13.480;2023-05-10T20:15:03;10.65;;;9.07;;
14681;SDS011;7429;52.498;13.480;2023-05-10T20:18:08;11.90;;;10.70;;
14681;SDS011;7429;52.498;13.480;2023-05-10T20:21:11;13.05;;;11.13;;
14681;SDS011;7429;52.498;13.480;2023-05-10T20:24:16;10.68;;;9.57;;
14681;SDS011;7429;52.498;13.480;2023-05-10T20:27:19;11.80;;;10.60;;
14681;SDS011;7429;52.498;13.480;2023-05-10T20:30:23;10.90;;;9.82;;
14681;SDS011;7429;52.498;13.480;2023-05-10T20:33:26;14.95;;;12.65;;
14681;SDS011;7429;52.498;13.480;2023-05-10T20:36:29;17.05;;;13.35;;
14681;SDS011;7429;52.498;13.480;2023-05-10T20:39:34;13.55;;;11.27;;
14681;SDS011;7429;52.498;13.480;2023-05-10T20:42:37;11.05;;;9.77;;
14681;SDS011;7429;52.498;13.480;2023-05-10T20:45:42;12.65;;;10.65;;
14681;SDS011;7429;52.498;13.480;2023-05-10T20:48:46;11.40;;;10.20;;
14681;SDS011;7429;52.498;13.480;2023-05-10T20:51:50;11.60;;;10.48;;
14681;SDS011;7429;52.498;13.480;2023-05-10T20:54:56;13.00;;;10.80;;
14681;SDS011;7429;52.498;13.480;2023-05-10T20:57:59;16.35;;;10.80;;
14681;SDS011;7429;52.498;13.480;2023-05-10T21:01:09;12.45;;;9.75;;
14681;SDS011;7429;52.498;13.480;2023-05-10T21:04:13;15.40;;;11.25;;
14681;SDS011;7429;52.498;13.480;2023-05-10T21:07:17;13.90;;;11.85;;
14681;SDS011;7429;52.498;13.480;2023-05-10T21:10:22;12.95;;;11.68;;
14681;SDS011;7429;52.498;13.480;2023-05-10T21:13:28;17.42;;;12.57;;
14681;SDS011;7429;52.498;13.480;2023-05-10T21:16:32;13.40;;;11.90;;
14681;SDS011;7429;52.498;13.480;2023-05-10T21:19:36;12.83;;;11.43;;
14681;SDS011;7429;52.498;13.480;2023-05-10T21:22:47;14.75;;;10.73;;
14681;SDS011;7429;52.498;13.480;2023-05-10T21:25:52;13.77;;;10.77;;
14681;SDS011;7429;52.498;13.480;2023-05-10T21:28:56;12.77;;;11.47;;
14681;SDS011;7429;52.498;13.480;2023-05-10T21:32:00;12.68;;;11.38;;
14681;SDS011;7429;52.498;13.480;2023-05-10T21:35:04;13.05;;;11.68;;
14681;SDS011;7429;52.498;13.480;2023-05-10T21:38:10;12.00;;;10.93;;
14681;SDS011;7429;52.498;13.480;2023-05-10T21:41:15;12.20;;;10.97;;